createdAt,value
2019-05-29T00:00:55.864Z,59.64
2019-05-29T00:01:55.888Z,59.53
2019-05-29T00:02:55.824Z,59.43
2019-05-29T00:03:55.803Z,59.74
2019-05-29T00:04:55.877Z,59.94
2019-05-29T00:05:55.778Z,60.14
2019-05-29T00:06:55.788Z,59.94
2019-05-29T00:07:55.765Z,59.94
2019-05-29T00:08:55.743Z,59.94
2019-05-29T00:09:55.743Z,60.38
2019-05-29T00:10:55.733Z,60.05
2019-05-29T00:11:55.739Z,60.45
2019-05-29T00:12:55.701Z,60.14
2019-05-29T00:13:55.695Z,60.07
2019-05-29T00:14:55.683Z,60.69
2019-05-29T00:15:55.696Z,60.48
2019-05-29T00:16:55.685Z,60.58
2019-05-29T00:17:55.647Z,60.69
2019-05-29T00:18:58.263Z,60.99
2019-05-29T00:19:55.622Z,60.78
2019-05-29T00:20:55.613Z,60.69
2019-05-29T00:21:55.622Z,60.69
2019-05-29T00:22:55.606Z,60.69
2019-05-29T00:23:55.591Z,61.30
2019-05-29T00:24:55.564Z,60.99
2019-05-29T00:25:55.564Z,60.17
2019-05-29T00:26:55.616Z,60.07
2019-05-29T00:27:55.542Z,59.77
2019-05-29T00:28:55.526Z,60.28
2019-05-29T00:29:55.513Z,60.92
2019-05-29T00:30:55.504Z,60.69
2019-05-29T00:31:55.512Z,59.97
2019-05-29T00:32:55.486Z,59.97
2019-05-29T00:33:55.474Z,59.77
2019-05-29T00:34:55.481Z,59.97
2019-05-29T00:35:55.451Z,60.17
2019-05-29T00:36:55.462Z,59.77
2019-05-29T00:37:55.418Z,60.48
2019-05-29T00:38:55.418Z,60.17
2019-05-29T00:39:55.399Z,60.69
2019-05-29T00:40:55.390Z,59.87
2019-05-29T00:41:55.427Z,60.38
2019-05-29T00:42:55.374Z,60.48
2019-05-29T00:43:55.354Z,60.07
2019-05-29T00:44:55.347Z,60.48
2019-05-29T00:45:55.334Z,59.77
2019-05-29T00:46:55.341Z,60.41
2019-05-29T00:47:55.313Z,60.99
2019-05-29T00:48:55.325Z,59.77
2019-05-29T00:49:55.286Z,60.17
2019-05-29T00:50:55.284Z,59.87
2019-05-29T00:51:55.304Z,60.48
2019-05-29T00:52:55.258Z,60.07
2019-05-29T00:53:55.245Z,59.87
2019-05-29T00:54:55.232Z,60.17
2019-05-29T00:55:55.237Z,60.38
2019-05-29T00:56:55.233Z,60.38
2019-05-29T00:57:55.200Z,60.28
2019-05-29T00:58:55.197Z,60.41
2019-05-29T00:59:55.177Z,59.56
2019-05-29T01:00:55.164Z,60.10
2019-05-29T01:01:55.198Z,60.17
2019-05-29T01:02:55.186Z,59.80
2019-05-29T01:03:55.131Z,60.00
2019-05-29T01:04:55.120Z,59.69
2019-05-29T01:05:55.114Z,60.41
2019-05-29T01:06:55.118Z,59.89
2019-05-29T01:07:55.087Z,60.17
2019-05-29T01:08:55.078Z,59.59
2019-05-29T01:09:55.067Z,60.00
2019-05-29T01:10:55.053Z,60.21
2019-05-29T01:11:55.066Z,59.80
2019-05-29T01:12:55.109Z,59.89
2019-05-29T01:13:55.023Z,60.00
2019-05-29T01:14:55.010Z,59.28
2019-05-29T01:15:54.995Z,60.10
2019-05-29T01:16:55.010Z,59.59
2019-05-29T01:17:54.974Z,60.10
2019-05-29T01:18:54.975Z,60.21
2019-05-29T01:19:54.987Z,59.80
2019-05-29T01:20:54.942Z,59.89
2019-05-29T01:21:54.948Z,60.71
2019-05-29T01:22:54.921Z,59.80
2019-05-29T01:23:54.911Z,59.80
2019-05-29T01:24:54.922Z,60.10
2019-05-29T01:25:54.885Z,60.10
2019-05-29T01:26:54.891Z,60.21
2019-05-29T01:27:54.866Z,60.21
2019-05-29T01:28:54.861Z,60.92
2019-05-29T01:29:54.843Z,61.02
2019-05-29T01:30:54.835Z,60.41
2019-05-29T01:31:54.847Z,60.61
2019-05-29T01:32:54.820Z,60.82
2019-05-29T01:33:54.820Z,60.30
2019-05-29T01:34:54.788Z,60.82
2019-05-29T01:35:54.782Z,60.82
2019-05-29T01:36:54.774Z,60.82
2019-05-29T01:37:54.780Z,61.12
2019-05-29T01:38:54.746Z,60.61
2019-05-29T01:39:54.765Z,60.30
2019-05-29T01:40:54.718Z,60.23
2019-05-29T01:41:54.720Z,60.94
2019-05-29T01:42:54.723Z,61.22
2019-05-29T01:43:54.690Z,60.94
2019-05-29T01:45:07.271Z,60.82
2019-05-29T01:45:55.663Z,61.43
2019-05-29T01:46:54.658Z,61.05
2019-05-29T01:47:54.668Z,60.74
2019-05-29T01:48:54.794Z,61.05
2019-05-29T01:49:54.619Z,61.53
2019-05-29T01:50:54.609Z,61.63
2019-05-29T01:51:54.679Z,61.63
2019-05-29T01:52:54.703Z,61.63
2019-05-29T01:53:54.594Z,61.32
2019-05-29T01:54:54.563Z,61.43
2019-05-29T01:55:54.548Z,61.25
2019-05-29T01:56:54.544Z,61.56
2019-05-29T01:57:54.559Z,61.22
2019-05-29T01:58:54.524Z,61.46
2019-05-29T01:59:54.518Z,61.66
2019-05-29T02:00:54.505Z,61.46
2019-05-29T02:01:54.481Z,62.27
2019-05-29T02:02:54.494Z,62.07
2019-05-29T02:03:54.465Z,62.17
2019-05-29T02:04:54.459Z,61.87
2019-05-29T02:05:54.447Z,62.68
2019-05-29T02:06:54.428Z,63.19
2019-05-29T02:07:54.434Z,62.68
2019-05-29T02:08:54.417Z,63.40
2019-05-29T02:09:54.398Z,63.19
2019-05-29T02:10:54.391Z,63.81
2019-05-29T02:11:54.369Z,63.70
2019-05-29T02:12:54.380Z,63.40
2019-05-29T02:13:54.355Z,64.42
2019-05-29T02:14:54.348Z,63.90
2019-05-29T02:15:54.329Z,64.52
2019-05-29T02:16:54.323Z,64.42
2019-05-29T02:17:54.330Z,64.52
2019-05-29T02:18:54.303Z,64.11
2019-05-29T02:19:54.282Z,64.42
2019-05-29T02:20:54.269Z,64.62
2019-05-29T02:21:54.262Z,64.62
2019-05-29T02:22:54.269Z,64.83
2019-05-29T02:23:54.235Z,64.62
2019-05-29T02:24:54.235Z,64.93
2019-05-29T02:25:54.218Z,65.03
2019-05-29T02:26:54.209Z,65.34
2019-05-29T02:27:54.215Z,65.13
2019-05-29T02:28:54.185Z,65.64
2019-05-29T02:29:54.166Z,65.13
2019-05-29T02:30:54.159Z,65.23
2019-05-29T02:31:54.151Z,65.84
2019-05-29T02:32:54.164Z,65.44
2019-05-29T02:33:54.131Z,65.74
2019-05-29T02:34:54.109Z,65.64
2019-05-29T02:35:54.101Z,65.88
2019-05-29T02:36:54.094Z,65.95
2019-05-29T02:37:54.109Z,65.95
2019-05-29T02:38:54.075Z,65.84
2019-05-29T02:39:54.089Z,66.36
2019-05-29T02:40:54.054Z,66.56
2019-05-29T02:41:54.054Z,66.49
2019-05-29T02:42:54.045Z,66.28
2019-05-29T02:43:54.025Z,66.39
2019-05-29T02:44:54.017Z,66.49
2019-05-29T02:45:55.183Z,66.28
2019-05-29T02:46:53.980Z,66.28
2019-05-29T02:47:53.987Z,66.39
2019-05-29T02:48:53.964Z,66.28
2019-05-29T02:49:53.974Z,66.80
2019-05-29T02:50:53.943Z,66.90
2019-05-29T02:51:53.923Z,66.28
2019-05-29T02:52:53.949Z,66.28
2019-05-29T02:53:53.927Z,66.80
2019-05-29T02:54:53.895Z,66.28
2019-05-29T02:55:54.009Z,67.00
2019-05-29T02:56:53.871Z,66.28
2019-05-29T02:57:53.886Z,66.80
2019-05-29T02:58:53.852Z,67.51
2019-05-29T02:59:53.836Z,67.34
2019-05-29T03:00:53.885Z,67.34
2019-05-29T03:01:53.817Z,67.54
2019-05-29T03:02:53.824Z,67.54
2019-05-29T03:03:53.795Z,67.65
2019-05-29T03:04:53.781Z,67.92
2019-05-29T03:05:53.770Z,67.54
2019-05-29T03:06:53.757Z,67.34
2019-05-29T03:07:53.782Z,67.71
2019-05-29T03:08:53.753Z,68.05
2019-05-29T03:09:53.722Z,67.95
2019-05-29T03:10:53.735Z,67.85
2019-05-29T03:11:53.707Z,67.95
2019-05-29T03:12:53.694Z,67.75
2019-05-29T03:13:53.725Z,68.16
2019-05-29T03:14:53.668Z,68.36
2019-05-29T03:16:09.606Z,68.26
2019-05-29T03:16:54.672Z,68.05
2019-05-29T03:17:53.654Z,68.36
2019-05-29T03:18:53.628Z,68.26
2019-05-29T03:19:53.619Z,67.54
2019-05-29T03:20:53.604Z,68.26
2019-05-29T03:21:53.606Z,68.23
2019-05-29T03:22:53.578Z,68.05
2019-05-29T03:23:53.568Z,68.36
2019-05-29T03:24:53.571Z,68.26
2019-05-29T03:25:53.555Z,68.05
2019-05-29T03:26:53.562Z,68.46
2019-05-29T03:27:53.528Z,68.66
2019-05-29T03:28:53.545Z,68.26
2019-05-29T03:29:53.497Z,68.46
2019-05-29T03:30:53.511Z,68.36
2019-05-29T03:31:53.481Z,68.57
2019-05-29T03:32:53.495Z,68.26
2019-05-29T03:33:53.478Z,68.36
2019-05-29T03:34:53.473Z,68.26
2019-05-29T03:35:53.439Z,68.46
2019-05-29T03:36:53.434Z,68.57
2019-05-29T03:37:53.417Z,68.46
2019-05-29T03:38:53.437Z,68.36
2019-05-29T03:39:53.392Z,68.16
2019-05-29T03:40:53.398Z,68.57
2019-05-29T03:41:53.367Z,68.39
2019-05-29T03:42:53.362Z,68.66
2019-05-29T03:43:53.370Z,68.66
2019-05-29T03:44:53.338Z,68.60
2019-05-29T03:45:53.321Z,68.16
2019-05-29T03:46:53.315Z,69.28
2019-05-29T03:47:53.301Z,68.77
2019-05-29T03:48:53.314Z,68.77
2019-05-29T03:49:53.281Z,68.97
2019-05-29T03:50:53.268Z,68.57
2019-05-29T03:51:53.260Z,68.57
2019-05-29T03:52:53.248Z,69.18
2019-05-29T03:53:53.265Z,69.07
2019-05-29T03:54:53.229Z,68.66
2019-05-29T03:55:53.211Z,69.28
2019-05-29T03:56:53.203Z,69.28
2019-05-29T03:57:53.200Z,69.18
2019-05-29T03:58:53.250Z,69.07
2019-05-29T03:59:53.167Z,68.87
2019-05-29T04:00:53.157Z,68.87
2019-05-29T04:01:53.148Z,68.77
2019-05-29T04:02:53.143Z,68.77
2019-05-29T04:03:53.144Z,69.07
2019-05-29T04:04:53.111Z,69.69
2019-05-29T04:05:53.109Z,68.87
2019-05-29T04:06:53.088Z,69.07
2019-05-29T04:07:53.081Z,68.87
2019-05-29T04:08:53.113Z,68.87
2019-05-29T04:09:53.053Z,68.87
2019-05-29T04:10:53.051Z,69.07
2019-05-29T04:11:53.036Z,69.38
2019-05-29T04:12:53.023Z,69.07
2019-05-29T04:13:53.029Z,69.04
2019-05-29T04:14:53.042Z,68.97
2019-05-29T04:15:52.989Z,69.45
2019-05-29T04:16:59.507Z,69.18
2019-05-29T04:17:53.967Z,68.77
2019-05-29T04:18:52.958Z,68.84
2019-05-29T04:19:52.967Z,68.74
2019-05-29T04:20:52.938Z,69.48
2019-05-29T04:21:52.921Z,68.97
2019-05-29T04:22:52.913Z,68.84
2019-05-29T04:23:52.894Z,68.87
2019-05-29T04:24:52.929Z,68.84
2019-05-29T04:25:52.883Z,68.33
2019-05-29T04:26:52.881Z,68.97
2019-05-29T04:27:52.857Z,68.26
2019-05-29T04:28:52.847Z,68.94
2019-05-29T04:29:52.854Z,68.97
2019-05-29T04:30:52.828Z,68.43
2019-05-29T04:31:52.815Z,68.36
2019-05-29T04:32:52.799Z,69.48
2019-05-29T04:33:52.793Z,68.94
2019-05-29T04:34:52.796Z,69.04
2019-05-29T04:35:52.770Z,68.53
2019-05-29T04:36:52.758Z,68.53
2019-05-29T04:37:52.742Z,68.23
2019-05-29T04:38:52.734Z,69.56
2019-05-29T04:39:52.744Z,68.84
2019-05-29T04:40:52.704Z,68.02
2019-05-29T04:41:52.697Z,67.61
2019-05-29T04:42:52.688Z,68.33
2019-05-29T04:43:56.895Z,68.33
2019-05-29T04:44:52.701Z,68.63
2019-05-29T04:45:52.664Z,68.02
2019-05-29T04:47:09.485Z,67.41
2019-05-29T04:47:53.635Z,67.10
2019-05-29T04:48:52.623Z,67.21
2019-05-29T04:49:52.631Z,67.51
2019-05-29T04:50:52.596Z,67.41
2019-05-29T04:51:52.602Z,67.89
2019-05-29T04:52:52.573Z,67.38
2019-05-29T04:53:52.560Z,66.56
2019-05-29T04:54:52.585Z,66.36
2019-05-29T04:55:52.538Z,66.05
2019-05-29T04:56:52.536Z,66.15
2019-05-29T04:57:52.516Z,66.46
2019-05-29T04:58:52.506Z,66.15
2019-05-29T04:59:52.530Z,66.18
2019-05-29T05:00:59.003Z,66.05
2019-05-29T05:01:53.480Z,65.57
2019-05-29T05:02:52.466Z,65.57
2019-05-29T05:03:52.452Z,65.06
2019-05-29T05:04:52.459Z,66.18
2019-05-29T05:05:52.428Z,65.84
2019-05-29T05:06:52.420Z,66.46
2019-05-29T05:07:53.397Z,66.36
2019-05-29T05:08:52.406Z,66.25
2019-05-29T05:09:52.419Z,65.74
2019-05-29T05:10:52.370Z,65.54
2019-05-29T05:11:52.357Z,65.44
2019-05-29T05:12:52.402Z,65.74
2019-05-29T05:13:52.340Z,65.41
2019-05-29T05:14:52.334Z,65.31
2019-05-29T05:15:52.341Z,65.71
2019-05-29T05:16:52.311Z,65.81
2019-05-29T05:17:52.295Z,65.54
2019-05-29T05:18:52.281Z,65.64
2019-05-29T05:19:52.281Z,66.02
2019-05-29T05:20:52.307Z,65.31
2019-05-29T05:21:52.252Z,65.10
2019-05-29T05:22:52.242Z,65.31
2019-05-29T05:23:52.231Z,65.41
2019-05-29T05:24:52.221Z,65.81
2019-05-29T05:25:52.220Z,64.79
2019-05-29T05:26:52.200Z,65.31
2019-05-29T05:27:52.178Z,65.31
2019-05-29T05:28:52.179Z,64.59
2019-05-29T05:29:52.169Z,65.00
2019-05-29T05:30:52.904Z,65.20
2019-05-29T05:31:52.151Z,65.10
2019-05-29T05:32:52.135Z,64.59
2019-05-29T05:33:52.112Z,64.79
2019-05-29T05:34:52.102Z,64.83
2019-05-29T05:35:52.120Z,65.20
2019-05-29T05:36:52.088Z,65.31
2019-05-29T05:37:52.087Z,65.61
2019-05-29T05:38:52.069Z,65.20
2019-05-29T05:39:52.052Z,65.10
2019-05-29T05:40:52.430Z,65.31
2019-05-29T05:41:52.023Z,65.51
2019-05-29T05:42:52.026Z,65.81
2019-05-29T05:43:52.004Z,65.10
2019-05-29T05:44:51.988Z,64.90
2019-05-29T05:45:51.996Z,64.87
2019-05-29T05:46:51.972Z,64.76
2019-05-29T05:47:57.435Z,64.46
2019-05-29T05:48:52.944Z,64.05
2019-05-29T05:49:51.937Z,63.51
2019-05-29T05:50:51.944Z,63.51
2019-05-29T05:51:51.917Z,63.51
2019-05-29T05:52:51.915Z,63.41
2019-05-29T05:53:51.893Z,62.90
2019-05-29T05:54:51.909Z,63.00
2019-05-29T05:55:51.901Z,61.95
2019-05-29T05:56:53.651Z,62.16
2019-05-29T05:57:51.850Z,62.66
2019-05-29T05:58:51.835Z,60.32
2019-05-29T05:59:51.830Z,59.81
2019-05-29T06:00:51.840Z,60.02
2019-05-29T06:01:51.804Z,60.32
2019-05-29T06:02:52.327Z,60.39
2019-05-29T06:03:51.779Z,58.36
2019-05-29T06:04:51.770Z,58.76
2019-05-29T06:05:51.770Z,58.15
2019-05-29T06:06:51.766Z,58.26
2019-05-29T06:07:51.734Z,58.15
2019-05-29T06:08:51.724Z,58.05
2019-05-29T06:09:51.722Z,60.30
2019-05-29T06:10:51.757Z,59.75
2019-05-29T06:11:51.708Z,59.86
2019-05-29T06:12:51.684Z,58.13
2019-05-29T06:13:51.672Z,59.96
2019-05-29T06:14:51.656Z,59.14
2019-05-29T06:15:51.664Z,57.82
2019-05-29T06:16:51.650Z,58.13
2019-05-29T06:18:17.146Z,59.86
2019-05-29T06:18:52.621Z,58.94
2019-05-29T06:19:51.612Z,59.05
2019-05-29T06:20:51.589Z,56.27
2019-05-29T06:21:51.604Z,56.27
2019-05-29T06:22:51.571Z,56.68
2019-05-29T06:23:51.568Z,57.39
2019-05-29T06:24:51.543Z,57.18
2019-05-29T06:25:51.536Z,56.16
2019-05-29T06:26:51.543Z,55.96
2019-05-29T06:27:51.561Z,55.76
2019-05-29T06:28:51.500Z,54.54
2019-05-29T06:29:51.489Z,55.15
2019-05-29T06:30:51.489Z,56.07
2019-05-29T06:31:51.483Z,55.96
2019-05-29T06:32:51.547Z,55.76
2019-05-29T06:33:51.444Z,55.76
2019-05-29T06:34:51.438Z,55.86
2019-05-29T06:35:51.418Z,55.76
2019-05-29T06:36:51.424Z,55.66
2019-05-29T06:37:51.422Z,55.55
2019-05-29T06:38:51.423Z,55.46
2019-05-29T06:39:51.398Z,56.20
2019-05-29T06:40:51.382Z,56.07
2019-05-29T06:41:51.381Z,56.40
2019-05-29T06:42:51.347Z,56.20
2019-05-29T06:43:51.331Z,57.21
2019-05-29T06:44:51.343Z,56.50
2019-05-29T06:45:51.317Z,56.20
2019-05-29T06:46:51.325Z,56.40
2019-05-29T06:47:51.287Z,57.11
2019-05-29T06:48:59.346Z,57.31
2019-05-29T06:49:52.274Z,57.21
2019-05-29T06:50:51.752Z,57.42
2019-05-29T06:51:51.269Z,57.08
2019-05-29T06:52:51.232Z,57.29
2019-05-29T06:53:51.219Z,57.29
2019-05-29T06:54:51.222Z,56.07
2019-05-29T06:55:53.655Z,56.16
2019-05-29T06:56:51.216Z,53.83
2019-05-29T06:57:51.187Z,54.92
2019-05-29T06:58:51.160Z,55.35
2019-05-29T06:59:51.157Z,55.76
2019-05-29T07:00:51.144Z,55.55
2019-05-29T07:01:51.160Z,55.25
2019-05-29T07:02:51.124Z,55.05
2019-05-29T07:03:51.122Z,55.46
2019-05-29T07:04:51.092Z,55.86
2019-05-29T07:05:52.764Z,55.05
2019-05-29T07:06:51.094Z,54.54
2019-05-29T07:07:51.076Z,53.80
2019-05-29T07:08:51.068Z,54.64
2019-05-29T07:09:51.057Z,54.51
2019-05-29T07:10:51.029Z,53.90
2019-05-29T07:11:51.044Z,54.21
2019-05-29T07:12:51.012Z,54.08
2019-05-29T07:13:51.134Z,53.78
2019-05-29T07:14:50.990Z,52.66
2019-05-29T07:15:50.975Z,52.23
2019-05-29T07:16:56.026Z,51.31
2019-05-29T07:17:51.948Z,51.18
2019-05-29T07:20:02.839Z,51.98
2019-05-29T07:20:51.915Z,50.43
2019-05-29T07:21:50.936Z,50.43
2019-05-29T07:22:50.896Z,50.43
2019-05-29T07:23:50.885Z,50.02
2019-05-29T07:24:50.896Z,50.84
2019-05-29T07:25:50.875Z,50.73
2019-05-29T07:26:50.863Z,50.35
2019-05-29T07:27:50.855Z,50.76
2019-05-29T07:29:07.643Z,50.45
2019-05-29T07:29:51.822Z,50.76
2019-05-29T07:31:00.825Z,50.76
2019-05-29T07:31:51.792Z,50.53
2019-05-29T07:32:57.673Z,49.84
2019-05-29T07:33:51.771Z,50.23
2019-05-29T07:35:02.700Z,50.02
2019-05-29T07:35:51.755Z,49.11
2019-05-29T07:36:50.741Z,48.60
2019-05-29T07:37:50.743Z,49.21
2019-05-29T07:39:02.680Z,48.72
2019-05-29T07:39:51.700Z,48.32
2019-05-29T07:40:50.699Z,49.05
2019-05-29T07:41:50.690Z,50.20
2019-05-29T07:42:55.092Z,50.40
2019-05-29T07:43:51.658Z,50.09
2019-05-29T07:44:50.649Z,51.31
2019-05-29T07:45:50.639Z,50.83
2019-05-29T07:46:50.628Z,49.48
2019-05-29T07:47:50.639Z,49.58
2019-05-29T07:48:50.714Z,49.79
2019-05-29T07:49:50.606Z,49.99
2019-05-29T07:51:04.441Z,51.42
2019-05-29T07:51:51.576Z,50.27
2019-05-29T07:52:50.586Z,49.84
2019-05-29T07:53:50.543Z,49.11
2019-05-29T07:54:50.548Z,48.71
2019-05-29T07:55:50.522Z,47.99
2019-05-29T07:56:50.517Z,48.18
2019-05-29T07:57:50.525Z,47.67
2019-05-29T07:59:01.675Z,46.95
2019-05-29T07:59:51.479Z,46.53
2019-05-29T08:01:09.889Z,46.22
2019-05-29T08:01:51.458Z,46.10
2019-05-29T08:02:50.580Z,46.00
2019-05-29T08:03:50.439Z,46.71
2019-05-29T08:04:50.422Z,46.22
2019-05-29T08:05:52.731Z,46.02
2019-05-29T08:06:54.324Z,47.34
2019-05-29T08:07:50.409Z,47.97
2019-05-29T08:08:50.385Z,47.85
2019-05-29T08:09:50.370Z,48.05
2019-05-29T08:10:50.358Z,46.51
2019-05-29T08:11:50.357Z,47.02
2019-05-29T08:12:55.343Z,45.29
2019-05-29T08:13:51.322Z,46.00
2019-05-29T08:14:50.514Z,45.98
2019-05-29T08:16:01.535Z,45.17
2019-05-29T08:16:51.301Z,44.66
2019-05-29T08:17:50.348Z,45.27
2019-05-29T08:18:52.962Z,44.13
2019-05-29T08:20:03.203Z,43.85
2019-05-29T08:20:51.253Z,44.15
2019-05-29T08:21:50.636Z,44.15
2019-05-29T08:22:52.067Z,44.36
2019-05-29T08:23:50.847Z,45.87
2019-05-29T08:24:51.127Z,46.10
2019-05-29T08:25:50.189Z,44.38
2019-05-29T08:26:51.006Z,46.33
2019-05-29T08:27:50.786Z,46.75
2019-05-29T08:28:51.124Z,46.75
2019-05-29T08:29:51.187Z,46.98
2019-05-29T08:30:55.749Z,47.28
2019-05-29T08:31:51.137Z,47.77
2019-05-29T08:32:51.271Z,47.36
2019-05-29T08:33:51.319Z,46.94
2019-05-29T08:34:51.224Z,46.53
2019-05-29T08:35:57.684Z,45.92
2019-05-29T08:37:05.934Z,45.01
2019-05-29T08:37:51.165Z,44.90
2019-05-29T08:38:50.065Z,46.02
2019-05-29T08:39:50.031Z,46.33
2019-05-29T08:40:50.038Z,46.41
2019-05-29T08:42:18.268Z,45.29
2019-05-29T08:42:51.456Z,44.18
2019-05-29T08:43:50.811Z,43.35
2019-05-29T08:44:50.122Z,41.22
2019-05-29T08:45:49.969Z,41.60
2019-05-29T08:47:06.500Z,41.38
2019-05-29T08:47:51.946Z,42.69
2019-05-29T08:48:50.150Z,42.47
2019-05-29T08:49:53.179Z,43.08
2019-05-29T08:50:50.032Z,41.56
2019-05-29T08:51:50.105Z,42.37
2019-05-29T08:52:50.168Z,42.29
2019-05-29T08:53:52.076Z,43.30
2019-05-29T08:54:50.141Z,44.01
2019-05-29T08:55:50.733Z,43.99
2019-05-29T08:56:50.373Z,43.59
2019-05-29T08:57:50.454Z,42.47
2019-05-29T08:58:50.679Z,42.37
2019-05-29T08:59:50.639Z,42.27
2019-05-29T09:00:53.157Z,42.88
2019-05-29T09:01:53.055Z,43.46
2019-05-29T09:02:51.048Z,42.76
2019-05-29T09:03:51.251Z,42.35
2019-05-29T09:04:51.775Z,43.26
2019-05-29T09:06:06.122Z,42.27
2019-05-29T09:06:51.195Z,42.68
2019-05-29T09:07:50.401Z,42.19
2019-05-29T09:08:50.528Z,43.29
2019-05-29T09:09:51.117Z,44.42
2019-05-29T09:10:49.921Z,43.69
2019-05-29T09:11:50.117Z,43.51
2019-05-29T09:13:01.921Z,44.12
2019-05-29T09:13:50.674Z,44.64
2019-05-29T09:14:49.647Z,44.34
2019-05-29T09:15:49.633Z,43.73
2019-05-29T09:16:49.624Z,44.96
2019-05-29T09:17:49.611Z,44.54
2019-05-29T09:18:49.618Z,45.27
2019-05-29T09:19:49.587Z,44.74
2019-05-29T09:21:02.588Z,44.12
2019-05-29T09:21:50.558Z,44.82
2019-05-29T09:22:49.569Z,44.12
2019-05-29T09:23:49.990Z,43.69
2019-05-29T09:24:49.538Z,43.87
2019-05-29T09:25:49.525Z,44.17
2019-05-29T09:26:49.512Z,44.07
2019-05-29T09:27:49.514Z,42.46
2019-05-29T09:28:49.517Z,41.95
2019-05-29T09:29:49.520Z,41.63
2019-05-29T09:30:49.470Z,41.22
2019-05-29T09:31:49.461Z,42.01
2019-05-29T09:32:52.444Z,41.30
2019-05-29T09:33:49.432Z,41.71
2019-05-29T09:34:49.465Z,41.50
2019-05-29T09:35:49.411Z,41.30
2019-05-29T09:36:49.427Z,39.99
2019-05-29T09:37:49.395Z,39.79
2019-05-29T09:38:49.394Z,39.91
2019-05-29T09:39:49.379Z,41.12
2019-05-29T09:40:52.608Z,41.52
2019-05-29T09:41:49.345Z,40.73
2019-05-29T09:42:49.332Z,41.35
2019-05-29T09:43:59.276Z,41.73
2019-05-29T09:44:50.311Z,40.21
2019-05-29T09:45:49.298Z,39.81
2019-05-29T09:46:49.287Z,40.82
2019-05-29T09:47:49.286Z,40.52
2019-05-29T09:48:50.288Z,40.82
2019-05-29T09:49:49.256Z,38.59
2019-05-29T09:50:50.750Z,38.90
2019-05-29T09:51:49.234Z,38.70
2019-05-29T09:52:49.227Z,39.20
2019-05-29T09:53:49.277Z,39.10
2019-05-29T09:54:49.197Z,40.52
2019-05-29T09:55:49.194Z,39.12
2019-05-29T09:56:49.177Z,39.83
2019-05-29T09:57:49.164Z,41.22
2019-05-29T09:58:49.178Z,39.81
2019-05-29T09:59:49.143Z,41.64
2019-05-29T10:01:05.004Z,40.01
2019-05-29T10:01:50.124Z,40.92
2019-05-29T10:02:49.106Z,39.89
2019-05-29T10:03:49.135Z,39.06
2019-05-29T10:04:49.092Z,38.44
2019-05-29T10:05:49.078Z,38.54
2019-05-29T10:06:49.072Z,38.75
2019-05-29T10:07:49.054Z,39.73
2019-05-29T10:08:49.063Z,39.13
2019-05-29T10:09:49.055Z,38.48
2019-05-29T10:10:49.031Z,38.79
2019-05-29T10:11:49.014Z,38.39
2019-05-29T10:12:49.003Z,38.08
2019-05-29T10:13:49.010Z,37.78
2019-05-29T10:14:51.279Z,38.17
2019-05-29T10:15:48.975Z,34.91
2019-05-29T10:16:48.957Z,35.30
2019-05-29T10:17:48.947Z,34.78
2019-05-29T10:18:48.949Z,33.44
2019-05-29T10:19:48.920Z,32.20
2019-05-29T10:20:49.445Z,33.49
2019-05-29T10:21:48.895Z,30.97
2019-05-29T10:22:48.898Z,31.94
2019-05-29T10:23:48.895Z,31.14
2019-05-29T10:24:48.865Z,30.62
2019-05-29T10:25:48.850Z,31.24
2019-05-29T10:26:48.849Z,32.86
2019-05-29T10:27:48.857Z,31.56
2019-05-29T10:29:01.664Z,31.60
2019-05-29T10:29:52.769Z,33.25
2019-05-29T10:30:50.161Z,35.58
2019-05-29T10:31:51.219Z,34.76
2019-05-29T10:32:50.050Z,35.11
2019-05-29T10:33:48.767Z,32.79
2019-05-29T10:34:48.776Z,32.35
2019-05-29T10:35:49.593Z,31.88
2019-05-29T10:36:51.722Z,32.49
2019-05-29T10:37:48.733Z,30.71
2019-05-29T10:38:48.733Z,29.97
2019-05-29T10:39:48.988Z,29.08
2019-05-29T10:41:00.371Z,30.61
2019-05-29T10:41:50.876Z,31.64
2019-05-29T10:42:49.092Z,29.91
2019-05-29T10:43:49.156Z,30.29
2019-05-29T10:44:49.118Z,29.25
2019-05-29T10:45:49.937Z,28.36
2019-05-29T10:46:51.611Z,28.83
2019-05-29T10:47:49.794Z,28.73
2019-05-29T10:48:50.847Z,28.39
2019-05-29T10:49:49.779Z,27.36
2019-05-29T10:50:50.991Z,28.25
2019-05-29T10:52:05.612Z,27.15
2019-05-29T10:52:49.935Z,26.33
2019-05-29T10:53:50.398Z,24.90
2019-05-29T10:54:48.562Z,26.09
2019-05-29T10:55:48.683Z,26.81
2019-05-29T10:56:48.879Z,27.34
2019-05-29T10:57:48.976Z,27.08
2019-05-29T10:58:54.360Z,27.81
2019-05-29T10:59:50.775Z,28.84
2019-05-29T11:00:49.121Z,28.88
2019-05-29T11:01:49.190Z,29.12
2019-05-29T11:02:49.975Z,30.95
2019-05-29T11:03:49.349Z,31.31
2019-05-29T11:04:52.916Z,29.13
2019-05-29T11:05:49.604Z,28.36
2019-05-29T11:06:49.998Z,26.42
2019-05-29T11:07:49.614Z,24.19
2019-05-29T11:08:48.416Z,23.65
2019-05-29T11:09:48.639Z,22.02
2019-05-29T11:10:49.957Z,20.91
2019-05-29T11:11:48.581Z,20.61
2019-05-29T11:12:48.479Z,20.59
2019-05-29T11:13:48.682Z,20.75
2019-05-29T11:14:48.567Z,20.83
2019-05-29T11:15:48.632Z,19.34
2019-05-29T11:16:49.006Z,18.81
2019-05-29T11:17:49.010Z,18.41
2019-05-29T11:18:49.162Z,17.92
2019-05-29T11:19:49.237Z,17.43
2019-05-29T11:20:49.353Z,17.22
2019-05-29T11:21:49.684Z,17.42
2019-05-29T11:22:49.468Z,17.24
2019-05-29T11:23:48.288Z,18.05
2019-05-29T11:24:48.282Z,18.48
2019-05-29T11:25:48.269Z,18.69
2019-05-29T11:26:48.410Z,19.73
2019-05-29T11:27:48.508Z,22.75
2019-05-29T11:28:48.384Z,24.36
2019-05-29T11:29:48.744Z,24.11
2019-05-29T11:30:48.665Z,26.13
2019-05-29T11:31:48.539Z,26.57
2019-05-29T11:32:50.208Z,26.90
2019-05-29T11:33:48.785Z,27.73
2019-05-29T11:34:48.888Z,28.27
2019-05-29T11:35:57.726Z,28.03
2019-05-29T11:36:49.959Z,26.26
2019-05-29T11:37:48.141Z,24.13
2019-05-29T11:38:48.127Z,24.40
2019-05-29T11:39:48.148Z,22.78
2019-05-29T11:40:48.475Z,22.07
2019-05-29T11:41:48.107Z,21.69
2019-05-29T11:42:48.107Z,22.28
2019-05-29T11:43:48.078Z,21.11
2019-05-29T11:44:48.093Z,22.31
2019-05-29T11:45:48.109Z,22.80
2019-05-29T11:46:48.076Z,22.97
2019-05-29T11:47:48.036Z,21.63
2019-05-29T11:48:48.126Z,23.25
2019-05-29T11:49:48.059Z,24.10
2019-05-29T11:50:48.014Z,26.23
2019-05-29T11:51:48.013Z,27.56
2019-05-29T11:52:47.994Z,28.28
2019-05-29T11:53:48.007Z,28.22
2019-05-29T11:54:48.068Z,29.95
2019-05-29T11:55:47.964Z,30.68
2019-05-29T11:56:47.940Z,30.16
2019-05-29T11:57:47.929Z,31.77
2019-05-29T11:58:47.924Z,30.68
2019-05-29T11:59:47.950Z,30.10
2019-05-29T12:00:47.894Z,30.90
2019-05-29T12:01:50.570Z,32.29
2019-05-29T12:02:47.880Z,32.49
2019-05-29T12:04:15.651Z,30.77
2019-05-29T12:04:48.882Z,30.87
2019-05-29T12:05:47.842Z,30.98
2019-05-29T12:06:47.834Z,32.39
2019-05-29T12:07:47.825Z,31.09
2019-05-29T12:08:47.815Z,32.39
2019-05-29T12:09:47.815Z,32.27
2019-05-29T12:10:47.789Z,32.07
2019-05-29T12:11:47.783Z,31.96
2019-05-29T12:12:47.986Z,31.85
2019-05-29T12:13:47.760Z,31.54
2019-05-29T12:15:03.420Z,31.43
2019-05-29T12:15:48.734Z,30.54
2019-05-29T12:16:47.723Z,29.72
2019-05-29T12:17:47.781Z,28.94
2019-05-29T12:18:47.700Z,30.04
2019-05-29T12:19:47.756Z,29.94
2019-05-29T12:20:47.745Z,31.24
2019-05-29T12:21:47.672Z,30.94
2019-05-29T12:23:10.946Z,30.84
2019-05-29T12:23:48.649Z,29.66
2019-05-29T12:24:47.643Z,29.69
2019-05-29T12:25:47.646Z,30.71
2019-05-29T12:26:47.616Z,31.82
2019-05-29T12:27:47.601Z,31.62
2019-05-29T12:28:47.597Z,32.00
2019-05-29T12:29:47.585Z,31.60
2019-05-29T12:30:47.589Z,30.90
2019-05-29T12:31:47.574Z,29.99
2019-05-29T12:32:47.550Z,31.90
2019-05-29T12:33:47.543Z,32.00
2019-05-29T12:34:53.517Z,31.00
2019-05-29T12:35:50.260Z,31.88
2019-05-29T12:36:47.504Z,31.68
2019-05-29T12:37:47.512Z,30.88
2019-05-29T12:38:47.490Z,29.78
2019-05-29T12:39:47.479Z,31.18
2019-05-29T12:40:47.501Z,30.88
2019-05-29T12:41:47.455Z,29.69
2019-05-29T12:42:47.451Z,31.41
2019-05-29T12:43:47.428Z,32.64
2019-05-29T12:44:47.429Z,32.62
2019-05-29T12:45:47.426Z,33.52
2019-05-29T12:46:47.410Z,33.64
2019-05-29T12:47:47.539Z,32.64
2019-05-29T12:48:47.380Z,33.55
2019-05-29T12:49:47.363Z,33.65
2019-05-29T12:50:47.367Z,33.36
2019-05-29T12:51:47.339Z,33.64
2019-05-29T12:52:47.380Z,32.82
2019-05-29T12:53:47.322Z,32.40